Terminal Aerodrome Forecast
Issued by NWS

Home | Current Version | Previous Version | Text Only | Print | Product List | Glossary Off
Versions: 1 2 3 4 5 6 7 8 9 10 11 12 13 14 15 16

504
FTUS43 KIWX 231739
TAFSBN
TAF
KSBN 231739Z 2318/2418 31006KT P6SM -SHRA SCT035 OVC050
     FM232200 10006KT P6SM VCSH BKN080
     FM240000 05005KT P6SM OVC080
     FM241300 07007KT 6SM -SHRA OVC030=

USA.gov is the U.S. government's official web portal to all federal, state and local government web resources and services.